ESSB/BMA METAR and TAF weather

Enter ICAO airport designator
Station Type Date Time Source
ESSB METAR 2020/03/29 21:50 UTC NOAA

ESSB 292150Z AUTO 22007KT 9999 OVC051/// 02/M07 Q1019


Station Type Date Time Source
ESSB Decoded METAR 2020/03/29 21:50 UTC NOAA

Stockholm / Bromma, Sweden (ESSB) 59-21N 017-57E 14M
Mar 29, 2020 - 05:50 PM EDT / 2020.03.29 2150 UTC
Wind: from the SW (220 degrees) at 8 MPH (7 KT):0
Visibility: greater than 7 mile(s):0
Sky conditions: overcast
Temperature: 35 F (2 C)
Windchill: 28 F (-2 C):1
Dew Point: 19 F (-7 C)
Relative Humidity: 51%
Pressure (altimeter): 30.09 in. Hg (1019 hPa)
ob: ESSB 292150Z AUTO 22007KT 9999 OVC051/// 02/M07 Q1019
cycle: 22

Station Type Date Time Source
ESSB TAF 2017/03/27 06:35 UTC NOAA

TAF ESSB 270530Z 2706/2724 27008KT CAVOK
BECMG 2710/2713 29015G25KT

Example: see airport list